Detalii statie SOMALEX GHIMPATI [0000198E]

Toti senzorii

Date Temperatura solului [C]Precipitatii [mm]Voltaj baterie [mV]Leaf Wetness [Min]HC Air temperature [C]HC Relative humidity [%]Punctul de roua [C]
medieminmaxsumaultimatimpmedieminmaxmediemediemin
2019-04-21 19:00:00 12 12 12 0 6884 12.01 11.87 12.15 0 0 0
2019-04-21 19:10:00 11.9 11.9 11.9 0 6844 11.41 11.29 11.53 0 0 0
2019-04-21 19:20:00 11.9 11.9 11.9 0 6864 10.93 10.89 10.98 0 0 0
2019-04-21 19:30:00 11.7 11.6 11.8 0 6874 10.94 10.8 11.08 0 0 0
2019-04-21 19:40:00 11.8 11.7 11.9 0 6864 10.72 10.67 10.78 0 0 0
2019-04-21 19:50:00 11.6 11.6 11.7 0 6874 10.29 10.25 10.34 0 0 0
2019-04-21 20:00:00 11.6 11.6 11.6 0 6874 10.1 9.99 10.21 0 0 0
2019-04-21 20:10:00 11.5 11.5 11.6 0 6834 9.88 9.86 9.9 0 0 0
2019-04-21 20:20:00 11.4 11.4 11.4 0 6854 9.81 9.81 9.82 0 0 0
2019-04-21 20:30:00 11.4 11.4 11.4 0 6864 9.72 9.69 9.76 0 0 0
2019-04-21 20:40:00 11.3 11.3 11.3 0 6864 9.37 9.17 9.57 0 0 0
2019-04-21 20:50:00 11.2 11.2 11.3 0 6864 8.98 8.9 9.06 0 0 0
2019-04-21 21:00:00 11.2 11.2 11.3 0 6874 8.67 8.6 8.74 0 0 0
2019-04-21 21:10:00 11.1 11.1 11.2 0 6826 8.41 8.26 8.56 0 0 0
2019-04-21 21:20:00 11.1 11.1 11.1 0 6844 8.21 8.21 8.21 0 0 0
2019-04-21 21:30:00 10.9 10.9 10.9 0 6854 8.08 8.04 8.12 0 0 0
2019-04-21 21:40:00 11 11 11 0 6854 7.99 7.98 8.01 0 0 0
2019-04-21 21:50:00 10.8 10.8 10.9 0 6854 7.8 7.71 7.89 0 0 0
2019-04-21 22:00:00 10.7 10.7 10.7 0 6864 7.39 7.31 7.48 0 0 0
2019-04-21 22:10:00 10.7 10.7 10.7 0 6816 7.15 7.11 7.2 0 0 0
2019-04-21 22:20:00 10.6 10.6 10.6 0 6834 7.01 6.99 7.04 0 0 0
2019-04-21 22:30:00 10.6 10.6 10.6 0 6844 6.96 6.92 7 0 0 0
2019-04-21 22:40:00 10.6 10.6 10.6 0 6854 7.26 7.14 7.39 0 0 0
2019-04-21 22:50:00 10.4 10.4 10.5 0 6854 7.64 7.54 7.75 0 0 0
2019-04-21 23:00:00 10.5 10.5 10.5 0 6844 7.71 7.68 7.75 0 0 0
2019-04-21 23:10:00 10.4 10.4 10.5 0 6816 7.42 7.39 7.46 37.18 1.5 0
2019-04-21 23:20:00 10.4 10.4 10.4 0 6834 7.35 7.34 7.37 0 0 0
2019-04-21 23:30:00 10.2 10.2 10.2 0 6834 7.29 7.28 7.3 0 0 0
2019-04-21 23:40:00 10.2 10.2 10.2 0 6834 7.4 7.34 7.46 0 0 0
2019-04-21 23:50:00 10.1 10.1 10.1 0 6834 7.44 7.39 7.49 0 0 0
2019-04-22 00:00:00 10.1 10.1 10.1 0 6834 7.52 7.51 7.53 0 0 0
2019-04-22 00:10:00 10 10 10.1 0 6776 7.51 7.47 7.55 37.78 1.7 0
2019-04-22 00:20:00 10 10 10.1 0 6796 7.49 7.47 7.51 41.56 2.4 0
2019-04-22 00:30:00 10 10 10 0 6806 7.51 7.49 7.53 0 0 0
2019-04-22 00:40:00 9.9 9.9 10 0 6816 7.5 7.49 7.51 81.41 4.4 4
2019-04-22 00:50:00 9.9 9.8 10.1 0 6816 7.37 7.37 7.38 78.58 3.7 3.4
2019-04-22 01:00:00 9.9 9.9 9.9 0 6826 7.4 7.39 7.42 77.32 3.5 3.4
2019-04-22 01:10:00 9.8 9.8 9.8 0 6796 7.34 7.32 7.37 87.16 5.2 4.8
2019-04-22 01:20:00 9.7 9.7 9.8 0 6816 7.22 7.18 7.26 89.64 5.4 5.4
2019-04-22 01:30:00 9.9 9.9 9.9 0 6796 7.24 7.19 7.29 78.45 3.5 2.7
2019-04-22 01:40:00 9.7 9.7 9.8 0 6816 7.25 7.23 7.27 0 0 0
2019-04-22 01:50:00 9.7 9.6 9.8 0 6816 7.21 7.19 7.23 36.59 1.4 0
2019-04-22 02:00:00 9.7 9.6 9.8 0 6826 7.2 7.19 7.21 77 3.3 2.6
2019-04-22 02:10:00 9.8 9.8 9.8 0 6786 7.16 7.15 7.18 73.33 2.6 2.6
2019-04-22 02:20:00 9.6 9.5 9.7 0 6796 7.14 7.13 7.15 81.91 4.1 3.9
2019-04-22 02:30:00 9.6 9.6 9.7 0 6806 7.17 7.16 7.18 86.34 4.9 4.6
2019-04-22 02:40:00 9.6 9.5 9.7 0 6806 7.04 7 7.08 85.94 4.7 4.5
2019-04-22 02:50:00 9.6 9.5 9.7 0 6806 6.94 6.92 6.96 87.31 4.8 4.6